createdAt,value
2018-06-10T00:00:12.709Z,100839.58
2018-06-10T00:01:18.181Z,100843.86
2018-06-10T00:02:23.627Z,100844.22
2018-06-10T00:03:29.113Z,100841.94
2018-06-10T00:04:34.630Z,100848.17
2018-06-10T00:05:40.086Z,100843.67
2018-06-10T00:06:45.773Z,100848.03
2018-06-10T00:07:51.182Z,100859.56
2018-06-10T00:08:56.602Z,100849.05
2018-06-10T00:10:02.071Z,100851.09
2018-06-10T00:11:07.502Z,100854.36
2018-06-10T00:12:13.172Z,100848.95
2018-06-10T00:13:18.596Z,100855.68
2018-06-10T00:14:24.006Z,100851.86
2018-06-10T00:15:29.424Z,100848.13
2018-06-10T00:16:34.603Z,100851.86
2018-06-10T00:17:39.999Z,100851.38
2018-06-10T00:18:45.431Z,100850.00
2018-06-10T00:19:50.845Z,100839.35
2018-06-10T00:20:56.286Z,100843.16
2018-06-10T00:22:01.733Z,100839.16
2018-06-10T00:23:07.725Z,100845.29
2018-06-10T00:24:13.180Z,100840.33
2018-06-10T00:25:18.599Z,100837.59
2018-06-10T00:26:24.004Z,100838.96
2018-06-10T00:27:29.487Z,100841.48
2018-06-10T00:28:40.211Z,100841.88
2018-06-10T00:29:45.746Z,100840.11
2018-06-10T00:30:51.207Z,100841.40
2018-06-10T00:31:56.653Z,100840.47
2018-06-10T00:33:02.077Z,100838.27
2018-06-10T00:34:07.617Z,100837.75
2018-06-10T00:35:13.110Z,100831.95
2018-06-10T00:36:18.619Z,100835.48
2018-06-10T00:37:24.086Z,100835.55
2018-06-10T00:38:30.021Z,100835.91
2018-06-10T00:39:35.573Z,100832.88
2018-06-10T00:40:41.069Z,100833.78
2018-06-10T00:41:46.697Z,100829.97
2018-06-10T00:42:52.107Z,100826.47
2018-06-10T00:43:57.547Z,100829.82
2018-06-10T00:45:03.066Z,100826.40
2018-06-10T00:46:08.520Z,100824.99
2018-06-10T00:47:14.106Z,100821.22
2018-06-10T00:48:19.540Z,100821.80
2018-06-10T00:49:24.982Z,100821.80
2018-06-10T00:50:30.393Z,100820.73
2018-06-10T00:51:35.991Z,100824.41
2018-06-10T00:52:41.473Z,100817.33
2018-06-10T00:53:46.971Z,100824.84
2018-06-10T00:54:52.425Z,100819.98
2018-06-10T00:55:57.874Z,100826.20
2018-06-10T00:57:03.319Z,100827.06
2018-06-10T00:58:08.796Z,100824.83
2018-06-10T00:59:14.208Z,100827.97
2018-06-10T01:00:19.686Z,100826.13
2018-06-10T01:01:25.134Z,100828.20
2018-06-10T01:02:30.669Z,100827.77
2018-06-10T01:03:36.542Z,100824.16
2018-06-10T01:04:41.957Z,100828.88
2018-06-10T01:05:47.405Z,100826.76
2018-06-10T01:06:52.821Z,100832.77
2018-06-10T01:07:58.284Z,100830.03
2018-06-10T01:09:03.859Z,100835.89
2018-06-10T01:10:09.417Z,100834.52
2018-06-10T01:11:14.817Z,100833.92
2018-06-10T01:12:20.305Z,100836.52
2018-06-10T01:13:26.170Z,100836.36
2018-06-10T01:14:31.602Z,100837.52
2018-06-10T01:15:37.237Z,100834.77
2018-06-10T01:16:42.676Z,100829.19
2018-06-10T01:17:48.207Z,100829.97
2018-06-10T01:18:53.753Z,100829.58
2018-06-10T01:19:59.249Z,100830.88
2018-06-10T01:21:04.920Z,100825.22
2018-06-10T01:22:10.670Z,100837.36
2018-06-10T01:23:16.193Z,100832.25
2018-06-10T01:24:21.642Z,100830.03
2018-06-10T01:25:26.820Z,100837.81
2018-06-10T01:26:37.525Z,100839.59
2018-06-10T01:27:42.979Z,100852.27
2018-06-10T01:28:48.365Z,100855.55
2018-06-10T01:29:53.790Z,100858.61
2018-06-10T01:31:00.022Z,100858.97
2018-06-10T01:32:05.441Z,100860.73
2018-06-10T01:33:10.909Z,100857.78
2018-06-10T01:34:16.321Z,100861.67
2018-06-10T01:35:21.773Z,100865.56
2018-06-10T01:36:27.193Z,100864.16
2018-06-10T01:37:32.594Z,100863.72
2018-06-10T01:38:38.118Z,100865.62
2018-06-10T01:39:43.566Z,100862.09
2018-06-10T01:40:49.022Z,100861.27
2018-06-10T01:41:54.453Z,100860.27
2018-06-10T01:43:00.066Z,100862.42
2018-06-10T01:44:05.534Z,100863.47
2018-06-10T01:45:11.101Z,100862.92
2018-06-10T01:46:16.529Z,100866.45
2018-06-10T01:47:22.032Z,100863.47
2018-06-10T01:48:27.478Z,100862.72
2018-06-10T01:49:32.906Z,100861.20
2018-06-10T01:50:38.604Z,100864.63
2018-06-10T01:51:44.049Z,100861.42
2018-06-10T01:52:49.508Z,100866.39
2018-06-10T01:53:54.941Z,100871.86
2018-06-10T01:55:00.513Z,100863.72
2018-06-10T01:56:06.086Z,100874.23
2018-06-10T01:57:11.534Z,100871.17
2018-06-10T01:58:16.943Z,100867.28
2018-06-10T01:59:22.375Z,100869.80
2018-06-10T02:00:27.980Z,100867.20
2018-06-10T02:01:33.859Z,100871.86
2018-06-10T02:02:39.268Z,100871.57
2018-06-10T02:03:44.680Z,100874.09
2018-06-10T02:04:50.133Z,100869.59
2018-06-10T02:05:55.602Z,100868.70
2018-06-10T02:07:01.352Z,100868.23
2018-06-10T02:08:06.877Z,100868.84
2018-06-10T02:09:12.291Z,100869.23
2018-06-10T02:10:17.705Z,100873.66
2018-06-10T02:11:23.146Z,100866.94
2018-06-10T02:12:28.605Z,100875.32
2018-06-10T02:13:34.022Z,100875.17
2018-06-10T02:14:39.449Z,100876.76
2018-06-10T02:15:44.924Z,100876.76
2018-06-10T02:16:50.362Z,100878.66
2018-06-10T02:17:55.790Z,100879.45
2018-06-10T02:19:01.256Z,100888.34
2018-06-10T02:20:07.233Z,100886.06
2018-06-10T02:21:12.670Z,100884.55
2018-06-10T02:22:18.074Z,100885.09
2018-06-10T02:23:23.513Z,100890.48
2018-06-10T02:24:29.076Z,100883.94
2018-06-10T02:25:34.745Z,100886.46
2018-06-10T02:26:40.141Z,100888.88
2018-06-10T02:27:45.572Z,100893.52
2018-06-10T02:28:51.018Z,100896.04
2018-06-10T02:29:56.440Z,100893.45
2018-06-10T02:31:01.908Z,100892.40
2018-06-10T02:32:07.344Z,100897.59
2018-06-10T02:33:12.745Z,100896.04
2018-06-10T02:34:18.160Z,100902.16
2018-06-10T02:35:23.573Z,100897.81
2018-06-10T02:36:29.012Z,100897.05
2018-06-10T02:37:34.426Z,100905.66
2018-06-10T02:38:39.844Z,100913.43
2018-06-10T02:39:45.245Z,100914.44
2018-06-10T02:40:50.680Z,100924.48
2018-06-10T02:41:56.126Z,100932.11
2018-06-10T02:43:01.630Z,100940.40
2018-06-10T02:44:07.053Z,100946.65
2018-06-10T02:45:12.444Z,100954.12
2018-06-10T02:46:17.855Z,100958.76
2018-06-10T02:47:23.384Z,100965.70
2018-06-10T02:48:28.797Z,100963.47
2018-06-10T02:49:34.217Z,100967.69
2018-06-10T02:50:39.696Z,100969.07
2018-06-10T02:51:45.165Z,100963.89
2018-06-10T02:52:50.603Z,100961.52
2018-06-10T02:53:56.067Z,100964.33
2018-06-10T02:55:01.488Z,100957.02
2018-06-10T02:56:07.028Z,100959.25
2018-06-10T02:57:12.437Z,100961.05
2018-06-10T02:58:17.829Z,100957.70
2018-06-10T02:59:23.270Z,100954.43
2018-06-10T03:00:28.703Z,100952.53
2018-06-10T03:01:34.117Z,100953.51
2018-06-10T03:02:39.529Z,100954.05
2018-06-10T03:03:44.929Z,100949.55
2018-06-10T03:04:50.789Z,100945.98
2018-06-10T03:05:56.221Z,100940.95
2018-06-10T03:07:01.645Z,100936.81
2018-06-10T03:08:07.110Z,100933.86
2018-06-10T03:09:12.518Z,100930.65
2018-06-10T03:10:18.461Z,100930.11
2018-06-10T03:11:23.881Z,100927.05
2018-06-10T03:12:29.294Z,100924.09
2018-06-10T03:13:34.715Z,100921.11
2018-06-10T03:14:40.122Z,100920.75
2018-06-10T03:15:45.531Z,100924.85
2018-06-10T03:16:50.957Z,100922.80
2018-06-10T03:17:56.377Z,100929.28
2018-06-10T03:19:01.801Z,100923.02
2018-06-10T03:20:07.298Z,100914.95
2018-06-10T03:21:12.723Z,100914.70
2018-06-10T03:22:18.195Z,100913.33
2018-06-10T03:23:23.605Z,100907.39
2018-06-10T03:24:29.044Z,100908.15
2018-06-10T03:25:34.515Z,100909.44
2018-06-10T03:26:40.093Z,100910.12
2018-06-10T03:27:45.398Z,100905.88
2018-06-10T03:28:50.806Z,100910.45
2018-06-10T03:29:56.209Z,100902.42
2018-06-10T03:31:01.636Z,100904.94
2018-06-10T03:32:07.138Z,100901.34
2018-06-10T03:33:12.565Z,100898.75
2018-06-10T03:34:18.138Z,100891.83
2018-06-10T03:35:23.569Z,100889.31
2018-06-10T03:36:28.987Z,100892.58
2018-06-10T03:37:34.458Z,100892.66
2018-06-10T03:38:40.016Z,100888.37
2018-06-10T03:39:45.452Z,100888.30
2018-06-10T03:40:50.864Z,100889.23
2018-06-10T03:41:56.277Z,100888.63
2018-06-10T03:43:01.857Z,100887.48
2018-06-10T03:44:07.317Z,100888.48
2018-06-10T03:45:12.759Z,100891.91
2018-06-10T03:46:18.217Z,100893.06
2018-06-10T03:47:23.749Z,100891.77
2018-06-10T03:48:29.356Z,100889.24
2018-06-10T03:49:34.821Z,100887.87
2018-06-10T03:50:40.257Z,100888.55
2018-06-10T03:51:45.673Z,100882.22
2018-06-10T03:52:51.092Z,100884.59
2018-06-10T03:53:56.536Z,100886.44
2018-06-10T03:55:01.961Z,100883.59
2018-06-10T03:56:07.681Z,100881.87
2018-06-10T03:57:13.126Z,100879.48
2018-06-10T03:58:18.569Z,100875.45
2018-06-10T03:59:24.040Z,100872.47
2018-06-10T04:00:29.582Z,100869.34
2018-06-10T04:01:35.006Z,100857.39
2018-06-10T04:02:40.477Z,100852.42
2018-06-10T04:03:45.922Z,100850.16
2018-06-10T04:04:51.381Z,100849.33
2018-06-10T04:05:56.844Z,100853.22
2018-06-10T04:07:02.254Z,100850.77
2018-06-10T04:08:07.713Z,100851.85
2018-06-10T04:09:13.109Z,100845.45
2018-06-10T04:10:18.544Z,100844.98
2018-06-10T04:11:23.957Z,100841.48
2018-06-10T04:12:29.486Z,100839.80
2018-06-10T04:13:34.940Z,100836.98
2018-06-10T04:14:40.454Z,100834.08
2018-06-10T04:15:45.932Z,100830.44
2018-06-10T04:16:51.361Z,100823.95
2018-06-10T04:17:56.783Z,100821.29
2018-06-10T04:19:02.229Z,100820.06
2018-06-10T04:20:07.705Z,100827.78
2018-06-10T04:21:13.162Z,100825.80
2018-06-10T04:22:18.565Z,100828.83
2018-06-10T04:23:23.989Z,100825.95
2018-06-10T04:24:29.445Z,100829.22
2018-06-10T04:25:36.247Z,100829.36
2018-06-10T04:26:41.681Z,100827.38
2018-06-10T04:27:47.105Z,100825.41
2018-06-10T04:28:53.090Z,100822.81
2018-06-10T04:29:58.561Z,100822.81
2018-06-10T04:31:03.979Z,100820.16
2018-06-10T04:32:09.428Z,100819.00
2018-06-10T04:33:14.868Z,100823.28
2018-06-10T04:34:20.321Z,100823.20
2018-06-10T04:35:25.749Z,100823.14
2018-06-10T04:36:31.205Z,100816.59
2018-06-10T04:37:36.752Z,100819.94
2018-06-10T04:38:49.546Z,100818.57
2018-06-10T04:39:55.002Z,100818.50
2018-06-10T04:41:00.424Z,100824.51
2018-06-10T04:42:05.938Z,100822.20
2018-06-10T04:43:11.369Z,100820.30
2018-06-10T04:44:16.810Z,100822.06
2018-06-10T04:45:22.347Z,100825.41
2018-06-10T04:46:27.773Z,100825.26
2018-06-10T04:47:33.213Z,100819.25
2018-06-10T04:48:38.634Z,100813.88
2018-06-10T04:49:44.077Z,100817.63
2018-06-10T04:50:49.948Z,100808.77
2018-06-10T04:51:55.353Z,100809.16
2018-06-10T04:53:00.780Z,100813.52
2018-06-10T04:54:06.250Z,100814.49
2018-06-10T04:55:11.662Z,100815.32
2018-06-10T04:56:17.229Z,100822.59
2018-06-10T04:57:22.653Z,100812.11
2018-06-10T04:58:28.502Z,100826.22
2018-06-10T04:59:33.904Z,100817.54
2018-06-10T05:00:39.323Z,100817.54
2018-06-10T05:01:44.802Z,100822.94
2018-06-10T05:02:50.237Z,100822.55
2018-06-10T05:03:55.704Z,100815.31
2018-06-10T05:05:01.173Z,100824.09
2018-06-10T05:06:06.708Z,100823.70
2018-06-10T05:07:12.118Z,100818.84
2018-06-10T05:08:17.550Z,100820.00
2018-06-10T05:09:23.134Z,100818.38
2018-06-10T05:10:28.577Z,100819.81
2018-06-10T05:11:33.982Z,100822.66
2018-06-10T05:12:39.416Z,100818.78
2018-06-10T05:13:44.908Z,100821.59
2018-06-10T05:14:50.378Z,100827.31
2018-06-10T05:15:55.779Z,100826.84
2018-06-10T05:17:01.299Z,100834.11
2018-06-10T05:18:06.967Z,100831.81
2018-06-10T05:19:12.385Z,100835.23
2018-06-10T05:20:17.817Z,100833.50
2018-06-10T05:21:23.255Z,100836.23
2018-06-10T05:22:28.652Z,100833.46
2018-06-10T05:23:34.256Z,100836.20
2018-06-10T05:24:39.661Z,100841.16
2018-06-10T05:25:45.230Z,100841.78
2018-06-10T05:26:50.859Z,100843.39
2018-06-10T05:27:56.305Z,100846.45
2018-06-10T05:29:01.755Z,100847.43
2018-06-10T05:30:07.226Z,100855.34
2018-06-10T05:31:12.675Z,100856.03
2018-06-10T05:32:18.117Z,100853.91
2018-06-10T05:33:23.533Z,100859.91
2018-06-10T05:34:28.947Z,100868.30
2018-06-10T05:35:34.377Z,100870.35
2018-06-10T05:36:39.805Z,100868.84
2018-06-10T05:37:45.287Z,100870.56
2018-06-10T05:38:50.713Z,100875.45
2018-06-10T05:39:56.677Z,100879.02
2018-06-10T05:41:02.227Z,100883.99
2018-06-10T05:42:07.712Z,100880.56
2018-06-10T05:43:13.157Z,100878.34
2018-06-10T05:44:18.582Z,100879.02
2018-06-10T05:45:24.278Z,100884.34
2018-06-10T05:46:29.709Z,100886.86
2018-06-10T05:47:35.138Z,100891.91
2018-06-10T05:48:40.681Z,100883.78
2018-06-10T05:49:46.174Z,100889.11
2018-06-10T05:50:51.676Z,100885.61
2018-06-10T05:51:57.089Z,100891.77
2018-06-10T05:53:02.968Z,100890.25
2018-06-10T05:54:08.396Z,100890.87
2018-06-10T05:55:13.829Z,100895.98
2018-06-10T05:56:19.304Z,100899.55
2018-06-10T05:57:24.838Z,100903.83
2018-06-10T05:58:30.377Z,100900.70
2018-06-10T05:59:35.797Z,100901.52
2018-06-10T06:00:41.237Z,100898.32
2018-06-10T06:01:46.721Z,100905.88
2018-06-10T06:02:52.129Z,100900.98
2018-06-10T06:03:58.285Z,100900.55
2018-06-10T06:05:03.760Z,100898.72
2018-06-10T06:06:08.912Z,100899.87
2018-06-10T06:07:14.334Z,100899.55
2018-06-10T06:08:19.890Z,100896.88
2018-06-10T06:09:25.485Z,100903.28
2018-06-10T06:10:30.902Z,100904.41
2018-06-10T06:11:36.389Z,100905.48
2018-06-10T06:12:41.810Z,100907.82
2018-06-10T06:13:47.314Z,100908.29
2018-06-10T06:14:52.885Z,100903.16
2018-06-10T06:15:58.336Z,100910.97
2018-06-10T06:17:03.801Z,100912.55
2018-06-10T06:18:08.901Z,100919.36
2018-06-10T06:19:14.231Z,100922.02
2018-06-10T06:20:19.690Z,100918.10
2018-06-10T06:21:25.641Z,100920.70
2018-06-10T06:22:31.104Z,100924.59
2018-06-10T06:23:36.513Z,100921.05
2018-06-10T06:24:41.954Z,100926.40
2018-06-10T06:25:47.404Z,100922.14
2018-06-10T06:26:53.008Z,100920.70
2018-06-10T06:27:58.457Z,100929.98
2018-06-10T06:29:03.946Z,100923.97
2018-06-10T06:30:09.386Z,100926.45
2018-06-10T06:31:15.201Z,100923.78
2018-06-10T06:32:20.636Z,100919.69
2018-06-10T06:33:26.585Z,100928.37
2018-06-10T06:34:32.000Z,100930.53
2018-06-10T06:35:37.529Z,100928.69
2018-06-10T06:36:43.082Z,100929.23
2018-06-10T06:37:48.658Z,100931.44
2018-06-10T06:38:54.195Z,100926.45
2018-06-10T06:39:59.740Z,100929.34
2018-06-10T06:41:05.538Z,100935.28
2018-06-10T06:42:10.970Z,100931.60
2018-06-10T06:43:16.216Z,100934.88
2018-06-10T06:44:21.568Z,100933.23
2018-06-10T06:45:26.995Z,100934.89
2018-06-10T06:46:32.903Z,100939.66
2018-06-10T06:47:38.397Z,100937.27
2018-06-10T06:48:43.894Z,100939.63
2018-06-10T06:49:49.354Z,100938.17
2018-06-10T06:50:54.838Z,100937.94
2018-06-10T06:52:00.389Z,100934.63
2018-06-10T06:53:05.906Z,100932.00
2018-06-10T06:54:11.366Z,100932.44
2018-06-10T06:55:16.829Z,100936.33
2018-06-10T06:56:22.361Z,100936.05
2018-06-10T06:57:27.854Z,100935.66
2018-06-10T06:58:33.333Z,100934.44
2018-06-10T06:59:38.736Z,100935.27
2018-06-10T07:00:44.160Z,100930.34
2018-06-10T07:01:49.560Z,100925.63
2018-06-10T07:02:55.201Z,100928.53
2018-06-10T07:04:00.850Z,100931.80
2018-06-10T07:05:06.274Z,100925.70
2018-06-10T07:06:11.705Z,100923.22
2018-06-10T07:07:17.466Z,100924.79
2018-06-10T07:08:22.946Z,100923.77
2018-06-10T07:09:28.112Z,100926.92
2018-06-10T07:10:33.686Z,100928.69
2018-06-10T07:11:39.154Z,100928.84
2018-06-10T07:12:44.579Z,100928.45
2018-06-10T07:13:50.009Z,100928.77
2018-06-10T07:14:55.552Z,100937.42
2018-06-10T07:16:00.992Z,100932.06
2018-06-10T07:17:06.425Z,100930.84
2018-06-10T07:18:11.885Z,100933.67
2018-06-10T07:19:17.425Z,100931.13
2018-06-10T07:20:22.841Z,100930.05
2018-06-10T07:21:28.499Z,100920.98
2018-06-10T07:22:33.922Z,100926.34
2018-06-10T07:23:39.333Z,100932.30
2018-06-10T07:24:44.942Z,100928.87
2018-06-10T07:25:50.390Z,100929.92
2018-06-10T07:26:56.303Z,100929.80
2018-06-10T07:28:01.756Z,100930.83
2018-06-10T07:29:07.171Z,100929.80
2018-06-10T07:30:12.649Z,100928.63
2018-06-10T07:31:18.095Z,100926.84
2018-06-10T07:32:23.238Z,100925.64
2018-06-10T07:33:28.608Z,100925.73
2018-06-10T07:34:34.050Z,100920.36
2018-06-10T07:35:39.547Z,100924.16
2018-06-10T07:36:44.954Z,100922.76
2018-06-10T07:37:50.424Z,100927.97
2018-06-10T07:38:55.873Z,100920.91
2018-06-10T07:40:01.486Z,100928.33
2018-06-10T07:41:06.944Z,100924.14
2018-06-10T07:42:12.372Z,100926.09
2018-06-10T07:43:18.021Z,100924.23
2018-06-10T07:44:23.532Z,100920.69
2018-06-10T07:45:28.967Z,100920.91
2018-06-10T07:46:34.387Z,100920.27
2018-06-10T07:47:39.796Z,100925.26
2018-06-10T07:48:45.733Z,100925.17
2018-06-10T07:49:51.186Z,100917.47
2018-06-10T07:50:56.314Z,100921.84
2018-06-10T07:52:01.640Z,100919.41
2018-06-10T07:53:07.304Z,100922.22
2018-06-10T07:54:12.771Z,100923.70
2018-06-10T07:55:18.358Z,100922.41
2018-06-10T07:56:23.784Z,100917.19
2018-06-10T07:57:29.216Z,100925.27
2018-06-10T07:58:34.669Z,100929.47
2018-06-10T07:59:40.102Z,100924.18
2018-06-10T08:00:45.784Z,100922.49
2018-06-10T08:01:51.224Z,100921.09
2018-06-10T08:02:56.313Z,100921.36
2018-06-10T08:04:01.748Z,100925.27
2018-06-10T08:05:07.291Z,100922.19
2018-06-10T08:06:12.722Z,100927.33
2018-06-10T08:07:18.637Z,100929.58
2018-06-10T08:08:24.154Z,100929.66
2018-06-10T08:09:29.985Z,100923.62
2018-06-10T08:10:35.413Z,100925.58
2018-06-10T08:11:40.841Z,100928.93
2018-06-10T08:12:46.502Z,100925.83
2018-06-10T08:13:51.992Z,100927.61
2018-06-10T08:14:57.521Z,100930.95
2018-06-10T08:16:03.032Z,100930.00
2018-06-10T08:17:08.606Z,100932.34
2018-06-10T08:18:14.029Z,100937.55
2018-06-10T08:19:19.470Z,100935.98
2018-06-10T08:20:24.926Z,100934.30
2018-06-10T08:21:30.339Z,100928.17
2018-06-10T08:22:35.778Z,100928.08
2018-06-10T08:23:41.185Z,100930.12
2018-06-10T08:24:47.062Z,100923.52
2018-06-10T08:25:52.489Z,100920.45
2018-06-10T08:26:57.926Z,100928.09
2018-06-10T08:28:03.650Z,100918.77
2018-06-10T08:29:09.085Z,100920.45
2018-06-10T08:30:14.547Z,100917.36
2018-06-10T08:31:20.205Z,100918.78
2018-06-10T08:32:25.630Z,100921.20
2018-06-10T08:33:31.090Z,100920.70
2018-06-10T08:34:36.492Z,100921.50
2018-06-10T08:35:41.956Z,100930.02
2018-06-10T08:36:47.519Z,100919.64
2018-06-10T08:37:52.933Z,100916.91
2018-06-10T08:38:58.432Z,100931.64
2018-06-10T08:40:04.041Z,100924.61
2018-06-10T08:41:09.442Z,100927.92
2018-06-10T08:42:15.005Z,100924.59
2018-06-10T08:43:20.550Z,100921.77
2018-06-10T08:44:26.002Z,100926.12
2018-06-10T08:45:31.417Z,100924.42
2018-06-10T08:46:36.830Z,100923.41
2018-06-10T08:47:42.289Z,100926.59
2018-06-10T08:48:47.825Z,100925.61
2018-06-10T08:49:53.266Z,100930.45
2018-06-10T08:50:58.686Z,100924.18
2018-06-10T08:52:04.153Z,100927.63
2018-06-10T08:53:09.590Z,100928.05
2018-06-10T08:54:15.050Z,100927.56
2018-06-10T08:55:20.497Z,100920.98
2018-06-10T08:56:25.929Z,100917.94
2018-06-10T08:57:31.359Z,100914.23
2018-06-10T08:58:36.826Z,100922.92
2018-06-10T08:59:42.310Z,100922.25
2018-06-10T09:00:47.753Z,100914.05
2018-06-10T09:01:53.202Z,100917.81
2018-06-10T09:02:58.706Z,100914.38
2018-06-10T09:04:04.370Z,100919.80
2018-06-10T09:05:09.872Z,100914.67
2018-06-10T09:06:15.157Z,100912.06
2018-06-10T09:07:20.477Z,100918.94
2018-06-10T09:08:25.944Z,100914.97
2018-06-10T09:09:31.373Z,100916.08
2018-06-10T09:10:36.817Z,100913.84
2018-06-10T09:11:42.702Z,100914.52
2018-06-10T09:12:48.156Z,100913.89
2018-06-10T09:13:53.572Z,100908.73
2018-06-10T09:14:59.023Z,100917.97
2018-06-10T09:16:04.463Z,100899.06
2018-06-10T09:17:10.418Z,100898.24
2018-06-10T09:18:15.991Z,100900.90
2018-06-10T09:19:21.437Z,100904.28
2018-06-10T09:20:26.914Z,100903.98
2018-06-10T09:21:32.377Z,100902.45
2018-06-10T09:22:37.849Z,100908.45
2018-06-10T09:23:43.809Z,100908.50
2018-06-10T09:24:49.254Z,100905.48
2018-06-10T09:25:54.691Z,100908.97
2018-06-10T09:27:00.221Z,100902.39
2018-06-10T09:28:05.837Z,100910.41
2018-06-10T09:29:11.283Z,100902.29
2018-06-10T09:30:16.742Z,100908.83
2018-06-10T09:31:22.190Z,100914.52
2018-06-10T09:32:27.585Z,100907.67
2018-06-10T09:33:33.074Z,100904.19
2018-06-10T09:34:38.486Z,100906.99
2018-06-10T09:35:43.937Z,100907.59
2018-06-10T09:36:50.346Z,100907.87
2018-06-10T09:37:55.762Z,100909.19
2018-06-10T09:39:00.907Z,100909.09
2018-06-10T09:40:06.283Z,100905.92
2018-06-10T09:41:11.724Z,100914.17
2018-06-10T09:42:17.180Z,100915.19
2018-06-10T09:43:22.650Z,100916.62
2018-06-10T09:44:28.065Z,100917.86
2018-06-10T09:45:33.509Z,100918.05
2018-06-10T09:46:38.973Z,100921.34
2018-06-10T09:47:44.468Z,100916.60
2018-06-10T09:48:50.314Z,100922.12
2018-06-10T09:49:55.869Z,100923.56
2018-06-10T09:51:01.254Z,100918.70
2018-06-10T09:52:06.726Z,100922.02
2018-06-10T09:53:12.467Z,100919.30
2018-06-10T09:54:18.181Z,100917.00
2018-06-10T09:55:23.715Z,100918.69
2018-06-10T09:56:29.243Z,100914.38
2018-06-10T09:57:34.641Z,100911.50
2018-06-10T09:58:40.163Z,100917.29
2018-06-10T09:59:45.761Z,100908.20
2018-06-10T10:00:51.212Z,100917.44
2018-06-10T10:01:56.638Z,100913.59
2018-06-10T10:03:02.062Z,100909.55
2018-06-10T10:04:07.494Z,100907.53
2018-06-10T10:05:13.053Z,100908.92
2018-06-10T10:06:18.554Z,100908.41
2018-06-10T10:07:23.979Z,100906.41
2018-06-10T10:08:29.420Z,100916.14
2018-06-10T10:09:34.835Z,100916.90
2018-06-10T10:10:40.305Z,100911.61
2018-06-10T10:11:45.781Z,100908.17
2018-06-10T10:12:51.196Z,100911.78
2018-06-10T10:13:56.597Z,100910.02
2018-06-10T10:15:02.098Z,100915.45
2018-06-10T10:16:07.651Z,100911.40
2018-06-10T10:17:13.053Z,100913.70
2018-06-10T10:18:18.529Z,100907.80
2018-06-10T10:19:23.947Z,100915.05
2018-06-10T10:20:29.365Z,100913.70
2018-06-10T10:21:34.842Z,100909.33
2018-06-10T10:22:40.266Z,100908.88
2018-06-10T10:23:45.669Z,100906.64
2018-06-10T10:24:51.705Z,100910.16
2018-06-10T10:25:57.109Z,100914.53
2018-06-10T10:27:02.605Z,100908.30
2018-06-10T10:28:08.026Z,100914.48
2018-06-10T10:29:13.463Z,100908.64
2018-06-10T10:30:18.909Z,100914.66
2018-06-10T10:31:24.314Z,100914.60
2018-06-10T10:32:29.880Z,100910.27
2018-06-10T10:33:35.456Z,100908.43
2018-06-10T10:34:40.846Z,100917.12
2018-06-10T10:35:46.449Z,100918.66
2018-06-10T10:36:51.852Z,100916.38
2018-06-10T10:37:58.245Z,100919.11
2018-06-10T10:39:03.922Z,100920.94
2018-06-10T10:40:09.365Z,100920.05
2018-06-10T10:41:14.885Z,100920.55
2018-06-10T10:42:20.341Z,100917.27
2018-06-10T10:43:25.785Z,100918.50
2018-06-10T10:44:31.656Z,100913.91
2018-06-10T10:45:37.069Z,100922.04
2018-06-10T10:46:42.586Z,100912.21
2018-06-10T10:47:48.084Z,100917.88
2018-06-10T10:48:53.506Z,100915.64
2018-06-10T10:49:59.042Z,100925.56
2018-06-10T10:51:04.573Z,100906.20
2018-06-10T10:52:10.110Z,100916.17
2018-06-10T10:53:16.105Z,100918.73
2018-06-10T10:54:21.536Z,100926.16
2018-06-10T10:55:26.660Z,100917.63
2018-06-10T10:56:31.985Z,100919.33
2018-06-10T10:57:37.409Z,100924.36
2018-06-10T10:58:42.956Z,100919.84
2018-06-10T10:59:48.390Z,100920.59
2018-06-10T11:00:53.877Z,100917.59
2018-06-10T11:01:59.370Z,100917.33
2018-06-10T11:03:04.997Z,100926.39
2018-06-10T11:04:10.446Z,100928.67
2018-06-10T11:05:15.909Z,100930.20
2018-06-10T11:06:21.381Z,100934.40
2018-06-10T11:07:26.821Z,100929.20
2018-06-10T11:08:32.290Z,100929.45
2018-06-10T11:09:37.765Z,100930.50
2018-06-10T11:10:43.283Z,100935.52
2018-06-10T11:11:48.774Z,100929.08
2018-06-10T11:12:54.197Z,100923.95
2018-06-10T11:13:59.629Z,100932.12
2018-06-10T11:15:05.157Z,100927.73
2018-06-10T11:16:10.614Z,100929.27
2018-06-10T11:17:16.165Z,100930.95
2018-06-10T11:18:21.632Z,100930.58
2018-06-10T11:19:27.112Z,100929.91
2018-06-10T11:20:32.768Z,100930.88
2018-06-10T11:21:38.193Z,100926.59
2018-06-10T11:22:43.639Z,100929.91
2018-06-10T11:23:49.097Z,100936.57
2018-06-10T11:24:54.522Z,100934.77
2018-06-10T11:25:59.994Z,100939.89
2018-06-10T11:27:05.438Z,100930.48
2018-06-10T11:28:10.889Z,100936.09
2018-06-10T11:29:16.392Z,100941.31
2018-06-10T11:30:23.101Z,100933.47
2018-06-10T11:31:28.557Z,100935.73
2018-06-10T11:32:34.015Z,100937.86
2018-06-10T11:33:39.434Z,100932.86
2018-06-10T11:34:44.872Z,100940.62
2018-06-10T11:35:50.421Z,100932.63
2018-06-10T11:36:55.903Z,100945.48
2018-06-10T11:38:01.362Z,100940.03
2018-06-10T11:39:09.376Z,100941.09
2018-06-10T11:40:14.808Z,100941.68
2018-06-10T11:41:20.266Z,100941.70
2018-06-10T11:42:25.696Z,100948.56
2018-06-10T11:43:30.980Z,100952.35
2018-06-10T11:44:36.429Z,100949.48
2018-06-10T11:45:41.840Z,100950.45
2018-06-10T11:46:47.269Z,100947.62
2018-06-10T11:47:52.668Z,100947.84
2018-06-10T11:48:58.130Z,100951.91
2018-06-10T11:50:04.726Z,100949.91
2018-06-10T11:51:10.162Z,100948.48
2018-06-10T11:52:15.630Z,100944.17
2018-06-10T11:53:21.101Z,100943.45
2018-06-10T11:54:26.533Z,100946.81
2018-06-10T11:55:32.465Z,100942.27
2018-06-10T11:56:37.897Z,100941.67
2018-06-10T11:57:43.313Z,100940.27
2018-06-10T11:58:48.757Z,100940.48
2018-06-10T11:59:54.209Z,100947.52
2018-06-10T12:00:59.830Z,100946.70
2018-06-10T12:02:05.637Z,100955.85
2018-06-10T12:03:11.122Z,100944.89
2018-06-10T12:04:16.611Z,100947.94
2018-06-10T12:05:22.038Z,100942.86
2018-06-10T12:06:27.487Z,100943.06
2018-06-10T12:07:33.007Z,100950.18
2018-06-10T12:08:38.438Z,100942.36
2018-06-10T12:09:43.937Z,100943.19
2018-06-10T12:10:49.615Z,100947.53
2018-06-10T12:11:54.718Z,100946.73
2018-06-10T12:13:00.033Z,100945.53
2018-06-10T12:14:05.508Z,100940.11
2018-06-10T12:15:11.417Z,100941.83
2018-06-10T12:16:16.888Z,100948.82
2018-06-10T12:17:22.032Z,100946.44
2018-06-10T12:18:27.402Z,100940.37
2018-06-10T12:19:32.841Z,100942.27
2018-06-10T12:20:38.281Z,100938.90
2018-06-10T12:21:43.681Z,100945.34
2018-06-10T12:22:48.825Z,100943.54
2018-06-10T12:23:54.457Z,100942.72
2018-06-10T12:24:59.653Z,100942.13
2018-06-10T12:26:04.989Z,100944.12
2018-06-10T12:27:10.410Z,100937.17